sensor_id;sensor_type;location;lat;lon;timestamp;temperature;humidity
7784;DHT22;19359;51.402;6.778;2022-07-29T00:01:26;20.30;99.90
7784;DHT22;19359;51.402;6.778;2022-07-29T00:03:53;20.30;99.90
7784;DHT22;19359;51.402;6.778;2022-07-29T00:06:19;20.30;99.90
7784;DHT22;19359;51.402;6.778;2022-07-29T00:08:46;20.20;99.90
7784;DHT22;19359;51.402;6.778;2022-07-29T00:11:13;20.20;99.90
7784;DHT22;19359;51.402;6.778;2022-07-29T00:13:40;20.20;99.90
7784;DHT22;19359;51.402;6.778;2022-07-29T00:16:07;20.20;99.90
7784;DHT22;19359;51.402;6.778;2022-07-29T00:18:35;20.10;99.90
7784;DHT22;19359;51.402;6.778;2022-07-29T00:21:02;20.10;99.90
7784;DHT22;19359;51.402;6.778;2022-07-29T00:23:29;20.10;99.90
7784;DHT22;19359;51.402;6.778;2022-07-29T00:25:56;20.10;99.90
7784;DHT22;19359;51.402;6.778;2022-07-29T00:28:23;20.10;99.90
7784;DHT22;19359;51.402;6.778;2022-07-29T00:30:49;20.10;99.90
7784;DHT22;19359;51.402;6.778;2022-07-29T00:33:16;20.10;99.90
7784;DHT22;19359;51.402;6.778;2022-07-29T00:35:44;20.10;99.90
7784;DHT22;19359;51.402;6.778;2022-07-29T00:38:12;20.10;99.90
7784;DHT22;19359;51.402;6.778;2022-07-29T00:40:40;20.00;99.90
7784;DHT22;19359;51.402;6.778;2022-07-29T00:43:07;20.00;99.90
7784;DHT22;19359;51.402;6.778;2022-07-29T00:45:34;19.90;99.90
7784;DHT22;19359;51.402;6.778;2022-07-29T00:48:01;19.80;99.90
7784;DHT22;19359;51.402;6.778;2022-07-29T00:50:28;19.90;99.90
7784;DHT22;19359;51.402;6.778;2022-07-29T00:52:58;19.90;99.90
7784;DHT22;19359;51.402;6.778;2022-07-29T00:55:25;19.90;99.90
7784;DHT22;19359;51.402;6.778;2022-07-29T00:57:52;19.90;99.90
7784;DHT22;19359;51.402;6.778;2022-07-29T01:00:22;19.90;99.90
7784;DHT22;19359;51.402;6.778;2022-07-29T01:02:49;19.80;99.90
7784;DHT22;19359;51.402;6.778;2022-07-29T01:05:18;19.80;99.90
7784;DHT22;19359;51.402;6.778;2022-07-29T01:07:46;19.70;99.90
7784;DHT22;19359;51.402;6.778;2022-07-29T01:10:16;19.80;99.90
7784;DHT22;19359;51.402;6.778;2022-07-29T01:12:44;19.80;99.90
7784;DHT22;19359;51.402;6.778;2022-07-29T01:15:12;19.70;99.90
7784;DHT22;19359;51.402;6.778;2022-07-29T01:17:43;19.80;99.90
7784;DHT22;19359;51.402;6.778;2022-07-29T01:20:15;19.80;99.90
7784;DHT22;19359;51.402;6.778;2022-07-29T01:23:01;19.80;99.90
7784;DHT22;19359;51.402;6.778;2022-07-29T01:25:48;19.70;99.90
7784;DHT22;19359;51.402;6.778;2022-07-29T01:28:39;19.60;99.90
7784;DHT22;19359;51.402;6.778;2022-07-29T01:31:10;19.60;99.90
7784;DHT22;19359;51.402;6.778;2022-07-29T01:33:43;19.60;99.90
7784;DHT22;19359;51.402;6.778;2022-07-29T01:36:22;19.70;99.90
7784;DHT22;19359;51.402;6.778;2022-07-29T01:38:57;19.70;99.90
7784;DHT22;19359;51.402;6.778;2022-07-29T01:41:30;19.70;99.90
7784;DHT22;19359;51.402;6.778;2022-07-29T01:44:01;19.70;99.90
7784;DHT22;19359;51.402;6.778;2022-07-29T01:46:33;19.70;99.90
7784;DHT22;19359;51.402;6.778;2022-07-29T01:49:06;19.60;99.90
7784;DHT22;19359;51.402;6.778;2022-07-29T01:51:41;19.60;99.90
7784;DHT22;19359;51.402;6.778;2022-07-29T01:54:14;19.60;99.90
7784;DHT22;19359;51.402;6.778;2022-07-29T01:56:43;19.60;99.90
7784;DHT22;19359;51.402;6.778;2022-07-29T01:59:13;19.70;99.90
7784;DHT22;19359;51.402;6.778;2022-07-29T02:01:41;19.70;99.90
7784;DHT22;19359;51.402;6.778;2022-07-29T02:04:11;19.70;99.90
7784;DHT22;19359;51.402;6.778;2022-07-29T02:06:40;19.60;99.90
7784;DHT22;19359;51.402;6.778;2022-07-29T02:09:10;19.60;99.90
7784;DHT22;19359;51.402;6.778;2022-07-29T02:11:40;19.50;99.90
7784;DHT22;19359;51.402;6.778;2022-07-29T02:14:09;19.40;99.90
7784;DHT22;19359;51.402;6.778;2022-07-29T02:16:40;19.40;99.90
7784;DHT22;19359;51.402;6.778;2022-07-29T02:19:08;19.40;99.90
7784;DHT22;19359;51.402;6.778;2022-07-29T02:21:38;19.40;99.90
7784;DHT22;19359;51.402;6.778;2022-07-29T02:24:06;19.40;99.90
7784;DHT22;19359;51.402;6.778;2022-07-29T02:26:35;19.40;99.90
7784;DHT22;19359;51.402;6.778;2022-07-29T02:29:02;19.40;99.90
7784;DHT22;19359;51.402;6.778;2022-07-29T02:31:32;19.40;99.90
7784;DHT22;19359;51.402;6.778;2022-07-29T02:34:02;19.30;99.90
7784;DHT22;19359;51.402;6.778;2022-07-29T02:36:30;19.20;99.90
7784;DHT22;19359;51.402;6.778;2022-07-29T02:38:58;19.30;99.90
7784;DHT22;19359;51.402;6.778;2022-07-29T02:41:28;19.20;99.90
7784;DHT22;19359;51.402;6.778;2022-07-29T02:43:56;19.30;99.90
7784;DHT22;19359;51.402;6.778;2022-07-29T02:46:29;19.30;99.90
7784;DHT22;19359;51.402;6.778;2022-07-29T02:49:01;19.30;99.90
7784;DHT22;19359;51.402;6.778;2022-07-29T02:51:35;19.30;99.90
7784;DHT22;19359;51.402;6.778;2022-07-29T02:54:07;19.20;99.90
7784;DHT22;19359;51.402;6.778;2022-07-29T02:56:36;19.20;99.90
7784;DHT22;19359;51.402;6.778;2022-07-29T02:59:09;19.10;99.90
7784;DHT22;19359;51.402;6.778;2022-07-29T03:01:39;19.10;99.90
7784;DHT22;19359;51.402;6.778;2022-07-29T03:04:11;19.10;99.90
7784;DHT22;19359;51.402;6.778;2022-07-29T03:06:40;19.00;99.90
7784;DHT22;19359;51.402;6.778;2022-07-29T03:09:10;18.90;99.90
7784;DHT22;19359;51.402;6.778;2022-07-29T03:11:38;18.70;99.90
7784;DHT22;19359;51.402;6.778;2022-07-29T03:14:06;18.70;99.90
7784;DHT22;19359;51.402;6.778;2022-07-29T03:16:34;18.70;99.90
7784;DHT22;19359;51.402;6.778;2022-07-29T03:19:03;18.70;99.90
7784;DHT22;19359;51.402;6.778;2022-07-29T03:21:31;18.70;99.90
7784;DHT22;19359;51.402;6.778;2022-07-29T03:23:58;18.60;99.90
7784;DHT22;19359;51.402;6.778;2022-07-29T03:26:25;18.50;99.90
7784;DHT22;19359;51.402;6.778;2022-07-29T03:28:52;18.50;99.90
7784;DHT22;19359;51.402;6.778;2022-07-29T03:31:19;18.50;99.90
7784;DHT22;19359;51.402;6.778;2022-07-29T03:33:46;18.60;99.90
7784;DHT22;19359;51.402;6.778;2022-07-29T03:38:43;18.50;99.90
7784;DHT22;19359;51.402;6.778;2022-07-29T03:41:11;18.50;99.90
7784;DHT22;19359;51.402;6.778;2022-07-29T03:43:41;18.50;99.90
7784;DHT22;19359;51.402;6.778;2022-07-29T03:46:09;18.40;99.90
7784;DHT22;19359;51.402;6.778;2022-07-29T03:48:39;18.20;99.90
7784;DHT22;19359;51.402;6.778;2022-07-29T03:51:07;18.20;99.90
7784;DHT22;19359;51.402;6.778;2022-07-29T03:53:34;18.10;99.90
7784;DHT22;19359;51.402;6.778;2022-07-29T03:56:05;18.00;99.90
7784;DHT22;19359;51.402;6.778;2022-07-29T03:58:33;18.00;99.90
7784;DHT22;19359;51.402;6.778;2022-07-29T04:01:01;18.10;99.90
7784;DHT22;19359;51.402;6.778;2022-07-29T04:03:28;18.00;99.90
7784;DHT22;19359;51.402;6.778;2022-07-29T04:05:58;18.00;99.90
7784;DHT22;19359;51.402;6.778;2022-07-29T04:08:26;17.90;99.90
7784;DHT22;19359;51.402;6.778;2022-07-29T04:10:52;17.90;99.90
7784;DHT22;19359;51.402;6.778;2022-07-29T04:13:21;17.70;99.90
7784;DHT22;19359;51.402;6.778;2022-07-29T04:15:47;17.60;99.90
7784;DHT22;19359;51.402;6.778;2022-07-29T04:18:14;17.20;99.90
7784;DHT22;19359;51.402;6.778;2022-07-29T04:20:41;17.20;99.90
7784;DHT22;19359;51.402;6.778;2022-07-29T04:23:08;17.10;99.90
7784;DHT22;19359;51.402;6.778;2022-07-29T04:25:37;17.20;99.90
7784;DHT22;19359;51.402;6.778;2022-07-29T04:28:05;17.30;99.90
7784;DHT22;19359;51.402;6.778;2022-07-29T04:30:34;17.20;99.90
7784;DHT22;19359;51.402;6.778;2022-07-29T04:33:02;17.20;99.90
7784;DHT22;19359;51.402;6.778;2022-07-29T04:35:30;17.00;99.90
7784;DHT22;19359;51.402;6.778;2022-07-29T04:37:57;16.90;99.90
7784;DHT22;19359;51.402;6.778;2022-07-29T04:40:24;16.80;99.90
7784;DHT22;19359;51.402;6.778;2022-07-29T04:42:51;16.90;99.90
7784;DHT22;19359;51.402;6.778;2022-07-29T04:45:17;16.90;99.90
7784;DHT22;19359;51.402;6.778;2022-07-29T04:47:46;16.90;99.90
7784;DHT22;19359;51.402;6.778;2022-07-29T04:50:12;16.90;99.90
7784;DHT22;19359;51.402;6.778;2022-07-29T04:52:39;16.90;99.90
7784;DHT22;19359;51.402;6.778;2022-07-29T04:55:07;16.80;99.90
7784;DHT22;19359;51.402;6.778;2022-07-29T04:57:33;16.80;99.90
7784;DHT22;19359;51.402;6.778;2022-07-29T05:00:00;16.80;99.90
7784;DHT22;19359;51.402;6.778;2022-07-29T05:02:27;16.80;99.90
7784;DHT22;19359;51.402;6.778;2022-07-29T05:04:55;16.90;99.90
7784;DHT22;19359;51.402;6.778;2022-07-29T05:07:22;16.80;99.90
7784;DHT22;19359;51.402;6.778;2022-07-29T05:09:49;16.80;99.90
7784;DHT22;19359;51.402;6.778;2022-07-29T05:12:16;16.80;99.90
7784;DHT22;19359;51.402;6.778;2022-07-29T05:14:42;16.80;99.90
7784;DHT22;19359;51.402;6.778;2022-07-29T05:17:09;16.80;99.90
7784;DHT22;19359;51.402;6.778;2022-07-29T05:19:36;16.90;99.90
7784;DHT22;19359;51.402;6.778;2022-07-29T05:22:04;16.90;99.90
7784;DHT22;19359;51.402;6.778;2022-07-29T05:24:31;16.90;99.90
7784;DHT22;19359;51.402;6.778;2022-07-29T05:26:57;16.90;99.90
7784;DHT22;19359;51.402;6.778;2022-07-29T05:29:24;16.60;99.90
7784;DHT22;19359;51.402;6.778;2022-07-29T05:31:51;16.50;99.90
7784;DHT22;19359;51.402;6.778;2022-07-29T05:34:18;16.60;99.90
7784;DHT22;19359;51.402;6.778;2022-07-29T05:36:45;16.60;99.90
7784;DHT22;19359;51.402;6.778;2022-07-29T05:39:13;16.70;99.90
7784;DHT22;19359;51.402;6.778;2022-07-29T05:41:40;16.70;99.90
7784;DHT22;19359;51.402;6.778;2022-07-29T05:44:07;16.70;99.90
7784;DHT22;19359;51.402;6.778;2022-07-29T05:46:33;16.70;99.90
7784;DHT22;19359;51.402;6.778;2022-07-29T05:49:00;16.70;99.90
7784;DHT22;19359;51.402;6.778;2022-07-29T05:51:28;16.50;99.90
7784;DHT22;19359;51.402;6.778;2022-07-29T05:53:55;16.50;99.90
7784;DHT22;19359;51.402;6.778;2022-07-29T05:56:23;16.60;99.90
7784;DHT22;19359;51.402;6.778;2022-07-29T05:58:50;16.60;99.90
7784;DHT22;19359;51.402;6.778;2022-07-29T06:01:17;16.60;99.90
7784;DHT22;19359;51.402;6.778;2022-07-29T06:03:44;16.60;99.90
7784;DHT22;19359;51.402;6.778;2022-07-29T06:06:11;16.60;99.90
7784;DHT22;19359;51.402;6.778;2022-07-29T06:08:38;16.80;99.90
7784;DHT22;19359;51.402;6.778;2022-07-29T06:11:05;16.80;99.90
7784;DHT22;19359;51.402;6.778;2022-07-29T06:13:35;16.80;99.90
7784;DHT22;19359;51.402;6.778;2022-07-29T06:16:01;16.90;99.90
7784;DHT22;19359;51.402;6.778;2022-07-29T06:18:29;17.00;99.90
7784;DHT22;19359;51.402;6.778;2022-07-29T06:20:56;17.10;99.90
7784;DHT22;19359;51.402;6.778;2022-07-29T06:23:23;17.10;99.90
7784;DHT22;19359;51.402;6.778;2022-07-29T06:25:50;17.30;99.90
7784;DHT22;19359;51.402;6.778;2022-07-29T06:28:16;17.40;99.90
7784;DHT22;19359;51.402;6.778;2022-07-29T06:30:44;17.40;99.90
7784;DHT22;19359;51.402;6.778;2022-07-29T06:33:16;17.50;99.90
7784;DHT22;19359;51.402;6.778;2022-07-29T06:35:43;17.60;99.90
7784;DHT22;19359;51.402;6.778;2022-07-29T06:38:11;17.70;99.90
7784;DHT22;19359;51.402;6.778;2022-07-29T06:40:41;17.70;99.90
7784;DHT22;19359;51.402;6.778;2022-07-29T06:43:25;17.70;99.90
7784;DHT22;19359;51.402;6.778;2022-07-29T06:45:53;17.70;99.90
7784;DHT22;19359;51.402;6.778;2022-07-29T06:48:20;17.70;99.90
7784;DHT22;19359;51.402;6.778;2022-07-29T06:50:47;17.70;99.90
7784;DHT22;19359;51.402;6.778;2022-07-29T06:53:14;17.70;99.90
7784;DHT22;19359;51.402;6.778;2022-07-29T06:55:41;17.70;99.90
7784;DHT22;19359;51.402;6.778;2022-07-29T06:58:08;17.60;99.90
7784;DHT22;19359;51.402;6.778;2022-07-29T07:00:36;17.50;99.90
7784;DHT22;19359;51.402;6.778;2022-07-29T07:03:04;17.40;99.90
7784;DHT22;19359;51.402;6.778;2022-07-29T07:05:31;17.30;99.90
7784;DHT22;19359;51.402;6.778;2022-07-29T07:07:58;17.20;99.90
7784;DHT22;19359;51.402;6.778;2022-07-29T07:10:25;17.40;99.90
7784;DHT22;19359;51.402;6.778;2022-07-29T07:12:51;17.40;99.90
7784;DHT22;19359;51.402;6.778;2022-07-29T07:15:18;17.40;99.90
7784;DHT22;19359;51.402;6.778;2022-07-29T07:17:47;17.50;99.90
7784;DHT22;19359;51.402;6.778;2022-07-29T07:20:16;17.60;99.90
7784;DHT22;19359;51.402;6.778;2022-07-29T07:22:43;17.60;99.90
7784;DHT22;19359;51.402;6.778;2022-07-29T07:25:10;17.60;99.90
7784;DHT22;19359;51.402;6.778;2022-07-29T07:27:37;17.70;99.90
7784;DHT22;19359;51.402;6.778;2022-07-29T07:30:05;17.70;99.90
7784;DHT22;19359;51.402;6.778;2022-07-29T07:32:32;17.70;99.90
7784;DHT22;19359;51.402;6.778;2022-07-29T07:34:59;17.80;99.90
7784;DHT22;19359;51.402;6.778;2022-07-29T07:37:27;17.80;99.90
7784;DHT22;19359;51.402;6.778;2022-07-29T07:39:54;17.80;99.90
7784;DHT22;19359;51.402;6.778;2022-07-29T07:42:21;17.80;99.90
7784;DHT22;19359;51.402;6.778;2022-07-29T07:44:48;17.80;99.90
7784;DHT22;19359;51.402;6.778;2022-07-29T07:47:15;17.80;99.90
7784;DHT22;19359;51.402;6.778;2022-07-29T07:49:45;17.80;99.90
7784;DHT22;19359;51.402;6.778;2022-07-29T07:52:12;17.80;99.90
7784;DHT22;19359;51.402;6.778;2022-07-29T07:54:40;17.80;99.90
7784;DHT22;19359;51.402;6.778;2022-07-29T07:57:06;17.80;99.90
7784;DHT22;19359;51.402;6.778;2022-07-29T07:59:33;17.70;99.90
7784;DHT22;19359;51.402;6.778;2022-07-29T08:02:00;17.70;99.90
7784;DHT22;19359;51.402;6.778;2022-07-29T08:04:27;17.70;99.90
7784;DHT22;19359;51.402;6.778;2022-07-29T08:09:21;17.70;99.90
7784;DHT22;19359;51.402;6.778;2022-07-29T08:11:49;17.80;99.90
7784;DHT22;19359;51.402;6.778;2022-07-29T08:14:16;17.80;99.90
7784;DHT22;19359;51.402;6.778;2022-07-29T08:16:42;17.80;99.90
7784;DHT22;19359;51.402;6.778;2022-07-29T08:19:10;17.80;99.90
7784;DHT22;19359;51.402;6.778;2022-07-29T08:21:37;17.80;99.90
7784;DHT22;19359;51.402;6.778;2022-07-29T08:24:04;17.70;99.90
7784;DHT22;19359;51.402;6.778;2022-07-29T08:26:50;17.70;99.90
7784;DHT22;19359;51.402;6.778;2022-07-29T08:29:17;17.70;99.90
7784;DHT22;19359;51.402;6.778;2022-07-29T08:31:44;17.50;99.90
7784;DHT22;19359;51.402;6.778;2022-07-29T08:34:11;17.80;99.90
7784;DHT22;19359;51.402;6.778;2022-07-29T08:36:38;18.00;99.90
7784;DHT22;19359;51.402;6.778;2022-07-29T08:39:05;18.30;99.90
7784;DHT22;19359;51.402;6.778;2022-07-29T08:41:31;18.30;99.90
7784;DHT22;19359;51.402;6.778;2022-07-29T08:43:59;18.60;99.90
7784;DHT22;19359;51.402;6.778;2022-07-29T08:46:26;18.70;99.90
7784;DHT22;19359;51.402;6.778;2022-07-29T08:48:54;19.00;99.90
7784;DHT22;19359;51.402;6.778;2022-07-29T08:51:22;19.00;99.90
7784;DHT22;19359;51.402;6.778;2022-07-29T08:53:50;19.30;99.90
7784;DHT22;19359;51.402;6.778;2022-07-29T08:56:18;19.20;99.90
7784;DHT22;19359;51.402;6.778;2022-07-29T08:58:45;19.20;99.90
7784;DHT22;19359;51.402;6.778;2022-07-29T09:01:16;19.00;99.90
7784;DHT22;19359;51.402;6.778;2022-07-29T09:03:44;19.00;99.90
7784;DHT22;19359;51.402;6.778;2022-07-29T09:06:13;18.90;99.90
7784;DHT22;19359;51.402;6.778;2022-07-29T09:08:40;18.80;99.90
7784;DHT22;19359;51.402;6.778;2022-07-29T09:11:06;18.80;99.90
7784;DHT22;19359;51.402;6.778;2022-07-29T09:13:33;18.80;99.90
7784;DHT22;19359;51.402;6.778;2022-07-29T09:16:01;18.50;99.90
7784;DHT22;19359;51.402;6.778;2022-07-29T09:18:36;18.50;99.90
7784;DHT22;19359;51.402;6.778;2022-07-29T09:21:03;18.60;99.90
7784;DHT22;19359;51.402;6.778;2022-07-29T09:24:03;18.70;99.90
7784;DHT22;19359;51.402;6.778;2022-07-29T09:26:31;18.40;99.90
7784;DHT22;19359;51.402;6.778;2022-07-29T09:28:58;18.60;99.90
7784;DHT22;19359;51.402;6.778;2022-07-29T09:31:33;18.40;99.90
7784;DHT22;19359;51.402;6.778;2022-07-29T09:34:02;18.40;99.90
7784;DHT22;19359;51.402;6.778;2022-07-29T09:36:28;18.50;99.90
7784;DHT22;19359;51.402;6.778;2022-07-29T09:38:59;18.40;99.90
7784;DHT22;19359;51.402;6.778;2022-07-29T09:41:27;18.40;99.90
7784;DHT22;19359;51.402;6.778;2022-07-29T09:43:55;18.60;99.90
7784;DHT22;19359;51.402;6.778;2022-07-29T09:46:22;18.80;99.90
7784;DHT22;19359;51.402;6.778;2022-07-29T09:49:11;18.80;99.90
7784;DHT22;19359;51.402;6.778;2022-07-29T09:51:38;18.80;99.90
7784;DHT22;19359;51.402;6.778;2022-07-29T09:54:20;18.80;99.90
7784;DHT22;19359;51.402;6.778;2022-07-29T09:56:47;18.80;99.90
7784;DHT22;19359;51.402;6.778;2022-07-29T09:59:14;18.90;99.90
7784;DHT22;19359;51.402;6.778;2022-07-29T10:01:41;18.90;99.90
7784;DHT22;19359;51.402;6.778;2022-07-29T10:04:09;19.00;99.90
7784;DHT22;19359;51.402;6.778;2022-07-29T10:06:55;19.00;99.90
7784;DHT22;19359;51.402;6.778;2022-07-29T10:09:22;19.20;99.90
7784;DHT22;19359;51.402;6.778;2022-07-29T10:12:03;19.20;99.90
7784;DHT22;19359;51.402;6.778;2022-07-29T10:14:31;19.20;99.90
7784;DHT22;19359;51.402;6.778;2022-07-29T10:16:59;19.20;99.90
7784;DHT22;19359;51.402;6.778;2022-07-29T10:19:28;19.40;99.90
7784;DHT22;19359;51.402;6.778;2022-07-29T10:21:56;19.70;99.90
7784;DHT22;19359;51.402;6.778;2022-07-29T10:24:24;20.10;99.90
7784;DHT22;19359;51.402;6.778;2022-07-29T10:26:53;20.20;99.90
7784;DHT22;19359;51.402;6.778;2022-07-29T10:29:20;20.10;99.90
7784;DHT22;19359;51.402;6.778;2022-07-29T10:31:52;20.60;99.90
7784;DHT22;19359;51.402;6.778;2022-07-29T10:34:35;20.90;99.90
7784;DHT22;19359;51.402;6.778;2022-07-29T10:37:08;21.10;99.90
7784;DHT22;19359;51.402;6.778;2022-07-29T10:39:47;21.40;99.90
7784;DHT22;19359;51.402;6.778;2022-07-29T10:42:20;21.40;99.90
7784;DHT22;19359;51.402;6.778;2022-07-29T10:44:48;21.50;99.90
7784;DHT22;19359;51.402;6.778;2022-07-29T10:47:22;21.60;99.90
7784;DHT22;19359;51.402;6.778;2022-07-29T10:49:58;21.60;99.90
7784;DHT22;19359;51.402;6.778;2022-07-29T10:52:26;21.80;99.90
7784;DHT22;19359;51.402;6.778;2022-07-29T10:55:30;21.90;99.90
7784;DHT22;19359;51.402;6.778;2022-07-29T10:58:12;22.30;99.90
7784;DHT22;19359;51.402;6.778;2022-07-29T11:00:39;22.50;99.90
7784;DHT22;19359;51.402;6.778;2022-07-29T11:03:06;22.50;99.90
7784;DHT22;19359;51.402;6.778;2022-07-29T11:05:55;22.70;99.90
7784;DHT22;19359;51.402;6.778;2022-07-29T11:08:24;23.00;99.90
7784;DHT22;19359;51.402;6.778;2022-07-29T11:10:52;23.30;99.90
7784;DHT22;19359;51.402;6.778;2022-07-29T11:13:45;23.00;99.90
7784;DHT22;19359;51.402;6.778;2022-07-29T11:16:13;23.40;99.90
7784;DHT22;19359;51.402;6.778;2022-07-29T11:21:46;24.00;99.90
7784;DHT22;19359;51.402;6.778;2022-07-29T11:24:16;24.10;99.90
7784;DHT22;19359;51.402;6.778;2022-07-29T11:26:43;24.10;99.90
7784;DHT22;19359;51.402;6.778;2022-07-29T11:29:19;24.20;99.90
7784;DHT22;19359;51.402;6.778;2022-07-29T11:31:49;24.10;99.90
7784;DHT22;19359;51.402;6.778;2022-07-29T11:34:24;24.00;99.90
7784;DHT22;19359;51.402;6.778;2022-07-29T11:37:21;24.10;99.90
7784;DHT22;19359;51.402;6.778;2022-07-29T11:40:13;24.10;99.90
7784;DHT22;19359;51.402;6.778;2022-07-29T11:42:45;24.10;99.90
7784;DHT22;19359;51.402;6.778;2022-07-29T11:45:20;24.00;99.90
7784;DHT22;19359;51.402;6.778;2022-07-29T11:47:50;23.80;99.90
7784;DHT22;19359;51.402;6.778;2022-07-29T11:50:27;23.80;99.90
7784;DHT22;19359;51.402;6.778;2022-07-29T11:52:56;23.90;99.90
7784;DHT22;19359;51.402;6.778;2022-07-29T11:55:24;23.90;99.90
7784;DHT22;19359;51.402;6.778;2022-07-29T11:57:52;23.80;99.90
7784;DHT22;19359;51.402;6.778;2022-07-29T12:00:28;23.90;99.90
7784;DHT22;19359;51.402;6.778;2022-07-29T12:02:57;23.80;99.90
7784;DHT22;19359;51.402;6.778;2022-07-29T12:05:35;23.60;99.90
7784;DHT22;19359;51.402;6.778;2022-07-29T12:08:15;23.70;99.90
7784;DHT22;19359;51.402;6.778;2022-07-29T12:10:45;23.80;99.90
7784;DHT22;19359;51.402;6.778;2022-07-29T12:13:13;23.80;99.90
7784;DHT22;19359;51.402;6.778;2022-07-29T12:15:40;23.90;99.90
7784;DHT22;19359;51.402;6.778;2022-07-29T12:18:24;23.70;99.90
7784;DHT22;19359;51.402;6.778;2022-07-29T12:20:57;23.60;99.90
7784;DHT22;19359;51.402;6.778;2022-07-29T12:23:25;23.50;99.90
7784;DHT22;19359;51.402;6.778;2022-07-29T12:25:52;23.50;99.90
7784;DHT22;19359;51.402;6.778;2022-07-29T12:28:19;23.50;99.90
7784;DHT22;19359;51.402;6.778;2022-07-29T12:30:48;23.40;99.90
7784;DHT22;19359;51.402;6.778;2022-07-29T12:33:21;23.40;99.90
7784;DHT22;19359;51.402;6.778;2022-07-29T12:35:50;23.30;99.90
7784;DHT22;19359;51.402;6.778;2022-07-29T12:38:17;23.30;99.90
7784;DHT22;19359;51.402;6.778;2022-07-29T12:40:47;23.10;99.90
7784;DHT22;19359;51.402;6.778;2022-07-29T12:43:16;23.20;99.90
7784;DHT22;19359;51.402;6.778;2022-07-29T12:45:45;23.40;99.90
7784;DHT22;19359;51.402;6.778;2022-07-29T12:48:12;23.50;99.90
7784;DHT22;19359;51.402;6.778;2022-07-29T12:50:56;23.50;99.90
7784;DHT22;19359;51.402;6.778;2022-07-29T12:53:23;23.40;99.90
7784;DHT22;19359;51.402;6.778;2022-07-29T12:55:52;23.40;99.90
7784;DHT22;19359;51.402;6.778;2022-07-29T12:58:36;23.50;99.90
7784;DHT22;19359;51.402;6.778;2022-07-29T13:01:06;23.70;99.90
7784;DHT22;19359;51.402;6.778;2022-07-29T13:03:45;23.90;99.90
7784;DHT22;19359;51.402;6.778;2022-07-29T13:06:31;24.00;99.90
7784;DHT22;19359;51.402;6.778;2022-07-29T13:08:59;24.30;99.90
7784;DHT22;19359;51.402;6.778;2022-07-29T13:11:32;24.30;99.90
7784;DHT22;19359;51.402;6.778;2022-07-29T13:13:59;25.00;99.90
7784;DHT22;19359;51.402;6.778;2022-07-29T13:16:27;26.10;99.90
7784;DHT22;19359;51.402;6.778;2022-07-29T13:19:05;26.60;99.90
7784;DHT22;19359;51.402;6.778;2022-07-29T13:21:32;26.20;99.90
7784;DHT22;19359;51.402;6.778;2022-07-29T13:23:58;26.30;99.90
7784;DHT22;19359;51.402;6.778;2022-07-29T13:26:25;26.30;99.90
7784;DHT22;19359;51.402;6.778;2022-07-29T13:28:54;25.80;99.90
7784;DHT22;19359;51.402;6.778;2022-07-29T13:31:21;26.40;99.90
7784;DHT22;19359;51.402;6.778;2022-07-29T13:33:48;26.80;99.90
7784;DHT22;19359;51.402;6.778;2022-07-29T13:36:15;27.40;99.90
7784;DHT22;19359;51.402;6.778;2022-07-29T13:38:41;27.70;99.90
7784;DHT22;19359;51.402;6.778;2022-07-29T13:41:08;27.60;99.90
7784;DHT22;19359;51.402;6.778;2022-07-29T13:43:35;27.80;99.90
7784;DHT22;19359;51.402;6.778;2022-07-29T13:46:03;28.60;99.90
7784;DHT22;19359;51.402;6.778;2022-07-29T13:48:30;29.10;99.90
7784;DHT22;19359;51.402;6.778;2022-07-29T13:50:57;29.30;99.90
7784;DHT22;19359;51.402;6.778;2022-07-29T13:53:23;28.70;99.90
7784;DHT22;19359;51.402;6.778;2022-07-29T13:55:50;29.20;99.90
7784;DHT22;19359;51.402;6.778;2022-07-29T13:58:17;29.70;99.90
7784;DHT22;19359;51.402;6.778;2022-07-29T14:00:44;29.90;99.90
7784;DHT22;19359;51.402;6.778;2022-07-29T14:03:13;29.90;99.90
7784;DHT22;19359;51.402;6.778;2022-07-29T14:05:40;29.40;99.90
7784;DHT22;19359;51.402;6.778;2022-07-29T14:08:06;29.30;99.90
7784;DHT22;19359;51.402;6.778;2022-07-29T14:10:33;29.00;99.90
7784;DHT22;19359;51.402;6.778;2022-07-29T14:13:00;28.60;99.90
7784;DHT22;19359;51.402;6.778;2022-07-29T14:15:27;29.30;99.90
7784;DHT22;19359;51.402;6.778;2022-07-29T14:17:54;30.20;99.90
7784;DHT22;19359;51.402;6.778;2022-07-29T14:20:22;30.10;99.90
7784;DHT22;19359;51.402;6.778;2022-07-29T14:22:49;30.40;99.90
7784;DHT22;19359;51.402;6.778;2022-07-29T14:25:15;30.20;99.90
7784;DHT22;19359;51.402;6.778;2022-07-29T14:27:42;30.10;99.90
7784;DHT22;19359;51.402;6.778;2022-07-29T14:30:10;30.10;99.90
7784;DHT22;19359;51.402;6.778;2022-07-29T14:32:37;30.60;99.90
7784;DHT22;19359;51.402;6.778;2022-07-29T14:35:04;30.30;99.90
7784;DHT22;19359;51.402;6.778;2022-07-29T14:37:33;29.00;99.90
7784;DHT22;19359;51.402;6.778;2022-07-29T14:40:01;28.80;99.90
7784;DHT22;19359;51.402;6.778;2022-07-29T14:42:29;29.00;99.90
7784;DHT22;19359;51.402;6.778;2022-07-29T14:44:56;29.70;99.90
7784;DHT22;19359;51.402;6.778;2022-07-29T14:47:23;30.10;99.90
7784;DHT22;19359;51.402;6.778;2022-07-29T14:49:50;30.00;99.90
7784;DHT22;19359;51.402;6.778;2022-07-29T14:52:16;30.70;99.90
7784;DHT22;19359;51.402;6.778;2022-07-29T14:54:44;30.90;99.90
7784;DHT22;19359;51.402;6.778;2022-07-29T14:57:11;30.50;99.90
7784;DHT22;19359;51.402;6.778;2022-07-29T14:59:38;30.50;99.90
7784;DHT22;19359;51.402;6.778;2022-07-29T15:02:05;31.40;99.90
7784;DHT22;19359;51.402;6.778;2022-07-29T15:04:31;31.80;99.90
7784;DHT22;19359;51.402;6.778;2022-07-29T15:06:58;31.30;99.90
7784;DHT22;19359;51.402;6.778;2022-07-29T15:09:25;31.20;99.90
7784;DHT22;19359;51.402;6.778;2022-07-29T15:11:53;31.70;99.90
7784;DHT22;19359;51.402;6.778;2022-07-29T15:14:20;32.00;99.90
7784;DHT22;19359;51.402;6.778;2022-07-29T15:16:47;31.20;99.90
7784;DHT22;19359;51.402;6.778;2022-07-29T15:19:14;30.20;99.90
7784;DHT22;19359;51.402;6.778;2022-07-29T15:21:41;30.30;99.90
7784;DHT22;19359;51.402;6.778;2022-07-29T15:24:08;31.20;99.90
7784;DHT22;19359;51.402;6.778;2022-07-29T15:26:34;31.40;99.90
7784;DHT22;19359;51.402;6.778;2022-07-29T15:29:02;31.90;99.90
7784;DHT22;19359;51.402;6.778;2022-07-29T15:31:29;32.10;99.90
7784;DHT22;19359;51.402;6.778;2022-07-29T15:33:56;32.60;99.90
7784;DHT22;19359;51.402;6.778;2022-07-29T15:36:23;32.40;99.90
7784;DHT22;19359;51.402;6.778;2022-07-29T15:38:52;31.80;99.90
7784;DHT22;19359;51.402;6.778;2022-07-29T15:41:20;31.70;99.90
7784;DHT22;19359;51.402;6.778;2022-07-29T15:43:46;32.10;99.90
7784;DHT22;19359;51.402;6.778;2022-07-29T15:46:16;32.50;99.90
7784;DHT22;19359;51.402;6.778;2022-07-29T15:49:02;31.70;99.90
7784;DHT22;19359;51.402;6.778;2022-07-29T15:51:29;31.80;99.90
7784;DHT22;19359;51.402;6.778;2022-07-29T15:53:56;32.20;99.90
7784;DHT22;19359;51.402;6.778;2022-07-29T15:56:22;32.00;99.90
7784;DHT22;19359;51.402;6.778;2022-07-29T15:58:49;31.60;99.90
7784;DHT22;19359;51.402;6.778;2022-07-29T16:01:18;31.10;99.90
7784;DHT22;19359;51.402;6.778;2022-07-29T16:03:45;30.90;99.90
7784;DHT22;19359;51.402;6.778;2022-07-29T16:06:12;30.80;99.90